Time;durP1;ratioP1;P1;durP2;ratioP2;P2;SDS_P1;SDS_P2;PMS_P1;PMS_P2;Temp;Humidity;BMP_temperature;BMP_pressure;BME280_temperature;BME280_humidity;BME280_pressure;Samples;Min_cycle;Max_cycle;Signal;HPM_P1;HPM_P2
2023/07/20 00:00:53;;;;;;;;;;;;;;;21.43;51.93;100383.75;4998100;28;7248;-70
2023/07/20 00:03:22;;;;;;;;;;;;;;;21.35;51.91;100384.59;4997223;28;7261;-70
2023/07/20 00:05:49;;;;;;;;;;;;;;;21.28;52.11;100381.97;4982879;28;7245;-69
2023/07/20 00:08:15;;;;;;;;;;;;;;;21.21;52.43;100388.91;4992288;28;6870;-69
2023/07/20 00:10:41;;;;;;;;;;;;;;;21.13;52.21;100388.84;4992158;28;7055;-71
2023/07/20 00:13:07;;;;;;;;;;;;;;;21.05;52.26;100387.94;4990621;28;6999;-70
2023/07/20 00:15:32;;;;;;;;;;;;;;;20.97;52.49;100381.84;4991699;28;6992;-70
2023/07/20 00:17:58;;;;;;;;;;;;;;;20.87;52.90;100386.13;5008885;28;7089;-69
2023/07/20 00:20:25;;;;;;;;;;;;;;;20.78;52.95;100381.72;5010286;28;6791;-70
2023/07/20 00:22:51;;;;;;;;;;;;;;;20.71;53.44;100386.00;4976226;28;7025;-71
2023/07/20 00:25:16;;;;;;;;;;;;;;;20.64;53.91;100387.69;5012857;28;7351;-69
2023/07/20 00:27:42;;;;;;;;;;;;;;;20.56;53.65;100384.16;4998248;28;7035;-69
2023/07/20 00:30:08;;;;;;;;;;;;;;;20.55;54.19;100387.63;5012039;28;6819;-69
2023/07/20 00:32:33;;;;;;;;;;;;;;;20.55;54.49;100390.25;5001013;28;6813;-69
2023/07/20 00:34:59;;;;;;;;;;;;;;;20.58;54.59;100385.06;5000490;28;6784;-69
2023/07/20 00:37:24;;;;;;;;;;;;;;;20.60;54.54;100390.28;4996824;28;6792;-69
2023/07/20 00:39:51;;;;;;;;;;;;;;;20.61;54.82;100390.28;4995241;28;6859;-71
2023/07/20 00:42:16;;;;;;;;;;;;;;;20.60;54.27;100390.28;5014394;28;6860;-70
2023/07/20 00:44:41;;;;;;;;;;;;;;;20.57;54.84;100385.06;5012258;28;6779;-71
2023/07/20 00:47:07;;;;;;;;;;;;;;;20.52;54.69;100385.03;5013833;28;6787;-69
2023/07/20 00:49:33;;;;;;;;;;;;;;;20.45;54.97;100383.22;4997521;28;7282;-70
2023/07/20 00:52:00;;;;;;;;;;;;;;;20.35;55.05;100380.56;5009224;28;6851;-70
2023/07/20 00:54:26;;;;;;;;;;;;;;;20.28;55.22;100381.41;4995421;28;6960;-71
2023/07/20 00:56:53;;;;;;;;;;;;;;;20.20;55.35;100383.06;4984163;28;7057;-69
2023/07/20 00:59:18;;;;;;;;;;;;;;;20.12;55.39;100385.59;5010702;28;6811;-70
2023/07/20 01:01:44;;;;;;;;;;;;;;;20.06;56.00;100381.19;5008483;28;7527;-70
2023/07/20 01:04:10;;;;;;;;;;;;;;;20.00;56.23;100381.16;5010533;28;7234;-69
2023/07/20 01:06:38;;;;;;;;;;;;;;;19.96;56.39;100384.59;4986542;28;6780;-70
2023/07/20 01:09:25;;;;;;;;;;;;;;;19.90;56.61;100385.38;4994697;28;6950;-70
2023/07/20 01:12:06;;;;;;;;;;;;;;;19.83;56.90;100381.84;4994703;28;7238;-70
2023/07/20 01:14:32;;;;;;;;;;;;;;;19.78;57.00;100386.13;5000254;28;7225;-69
2023/07/20 01:16:58;;;;;;;;;;;;;;;19.75;57.02;100380.88;5009294;28;7259;-71
2023/07/20 01:19:23;;;;;;;;;;;;;;;19.72;56.98;100386.06;4979364;28;6958;-70
2023/07/20 01:22:00;;;;;;;;;;;;;;;19.70;56.82;100382.56;5012182;28;7144;-70
2023/07/20 01:24:53;;;;;;;;;;;;;;;19.67;57.18;100382.53;4992422;28;6800;-72
2023/07/20 01:27:49;;;;;;;;;;;;;;;19.63;57.58;100380.78;4995582;28;7065;-71
2023/07/20 01:30:43;;;;;;;;;;;;;;;19.60;57.40;100383.31;5008893;28;7044;-72
2023/07/20 01:33:13;;;;;;;;;;;;;;;19.60;57.87;100380.72;4978775;28;6943;-69
2023/07/20 01:35:41;;;;;;;;;;;;;;;19.60;58.20;100384.22;4997507;28;6954;-71
2023/07/20 01:38:09;;;;;;;;;;;;;;;19.62;58.19;100381.63;4981160;28;7258;-70
2023/07/20 01:40:35;;;;;;;;;;;;;;;19.64;58.18;100372.13;4995564;28;7261;-69
2023/07/20 01:43:00;;;;;;;;;;;;;;;19.67;57.95;100375.63;4999498;28;6851;-72
2023/07/20 01:45:26;;;;;;;;;;;;;;;19.70;57.73;100372.16;5010162;28;6856;-70
2023/07/20 01:47:52;;;;;;;;;;;;;;;19.72;57.77;100378.28;4996478;28;6811;-69
2023/07/20 01:50:17;;;;;;;;;;;;;;;19.73;57.63;100381.72;5003914;28;6791;-70
2023/07/20 01:52:43;;;;;;;;;;;;;;;19.75;57.73;100382.59;4991225;28;7142;-69
2023/07/20 01:55:09;;;;;;;;;;;;;;;19.76;57.96;100382.63;5011018;28;6974;-71
2023/07/20 01:57:34;;;;;;;;;;;;;;;19.84;57.99;100382.69;4995621;28;7136;-68
2023/07/20 02:00:00;;;;;;;;;;;;;;;19.91;57.93;100387.09;4996013;28;6799;-69
2023/07/20 02:02:27;;;;;;;;;;;;;;;20.00;58.30;100378.56;4992287;28;6946;-71
2023/07/20 02:04:53;;;;;;;;;;;;;;;20.07;58.13;100382.09;4991412;28;6800;-71
2023/07/20 02:07:18;;;;;;;;;;;;;;;20.13;57.74;100374.31;4995437;28;6788;-69
2023/07/20 02:09:44;;;;;;;;;;;;;;;20.17;57.70;100373.50;4990339;28;8423;-70
2023/07/20 02:12:09;;;;;;;;;;;;;;;20.20;57.51;100373.50;5007377;28;7187;-70
2023/07/20 02:14:35;;;;;;;;;;;;;;;20.24;57.63;100374.41;5008485;28;6792;-71
2023/07/20 02:17:01;;;;;;;;;;;;;;;20.29;57.20;100371.84;4993884;28;7134;-68
2023/07/20 02:19:27;;;;;;;;;;;;;;;20.33;57.15;100371.00;4993088;28;6992;-70
2023/07/20 02:21:52;;;;;;;;;;;;;;;20.35;57.02;100377.97;5001736;28;7042;-69
2023/07/20 02:24:18;;;;;;;;;;;;;;;20.38;57.28;100364.09;4998013;28;6955;-70
2023/07/20 02:26:43;;;;;;;;;;;;;;;20.42;56.93;100370.19;4994364;28;7035;-71
2023/07/20 02:29:11;;;;;;;;;;;;;;;20.45;56.43;100368.50;4994266;28;7189;-69
2023/07/20 02:31:39;;;;;;;;;;;;;;;20.46;56.93;100374.56;4996401;28;6996;-72
2023/07/20 02:34:05;;;;;;;;;;;;;;;20.47;56.49;100366.78;4997894;28;6804;-69
2023/07/20 02:36:32;;;;;;;;;;;;;;;20.48;56.29;100371.09;4998032;28;6784;-70
2023/07/20 02:38:58;;;;;;;;;;;;;;;20.47;56.47;100366.78;4984743;28;7005;-71
2023/07/20 02:41:24;;;;;;;;;;;;;;;20.47;55.92;100371.09;5000799;28;7218;-71
2023/07/20 02:43:49;;;;;;;;;;;;;;;20.44;56.54;100364.16;4994590;28;6958;-70
2023/07/20 02:46:15;;;;;;;;;;;;;;;20.45;56.17;100367.63;4998734;28;6946;-70
2023/07/20 02:48:40;;;;;;;;;;;;;;;20.44;56.25;100365.88;4994665;28;6862;-71
2023/07/20 02:51:07;;;;;;;;;;;;;;;20.44;56.26;100371.06;5000079;28;6819;-71
2023/07/20 02:53:33;;;;;;;;;;;;;;;20.42;55.90;100362.41;5016364;28;7003;-70
2023/07/20 02:55:59;;;;;;;;;;;;;;;20.37;55.80;100370.16;4992017;28;6846;-71
2023/07/20 02:58:24;;;;;;;;;;;;;;;20.32;55.83;100371.84;4997026;28;6933;-68
2023/07/20 03:00:49;;;;;;;;;;;;;;;20.23;56.00;100370.94;5012454;28;6904;-69
2023/07/20 03:03:15;;;;;;;;;;;;;;;20.12;55.97;100375.19;4991687;28;6862;-70
2023/07/20 03:05:41;;;;;;;;;;;;;;;20.02;55.71;100379.44;4981223;28;6993;-71
2023/07/20 03:08:06;;;;;;;;;;;;;;;19.92;56.09;100383.66;4997899;28;7203;-69
2023/07/20 03:10:32;;;;;;;;;;;;;;;19.84;56.28;100390.50;4988166;28;7009;-71
2023/07/20 03:12:58;;;;;;;;;;;;;;;19.75;56.52;100390.41;4997935;28;7034;-69
2023/07/20 03:15:23;;;;;;;;;;;;;;;19.66;56.47;100386.00;5001994;28;6854;-70
2023/07/20 03:17:49;;;;;;;;;;;;;;;19.57;56.22;100392.00;4980903;28;6824;-69
2023/07/20 03:20:14;;;;;;;;;;;;;;;19.50;56.70;100391.03;4984247;28;6851;-70
2023/07/20 03:22:40;;;;;;;;;;;;;;;19.43;56.64;100400.47;4982110;28;7245;-72
2023/07/20 03:25:05;;;;;;;;;;;;;;;19.37;57.02;100415.13;4995752;28;6984;-71
2023/07/20 03:27:31;;;;;;;;;;;;;;;19.29;57.30;100402.91;4998382;28;7020;-70
2023/07/20 03:29:56;;;;;;;;;;;;;;;19.25;57.78;100411.53;4991596;28;6976;-71
2023/07/20 03:32:22;;;;;;;;;;;;;;;19.21;57.35;100414.94;4986546;28;6844;-70
2023/07/20 03:34:47;;;;;;;;;;;;;;;19.20;57.50;100414.94;4987969;28;6847;-68
2023/07/20 03:37:13;;;;;;;;;;;;;;;19.22;57.97;100421.03;4998702;28;6787;-69
2023/07/20 03:39:39;;;;;;;;;;;;;;;19.28;58.03;100415.91;4982307;28;6963;-71
2023/07/20 03:42:04;;;;;;;;;;;;;;;19.36;57.99;100416.00;4995795;28;6851;-69
2023/07/20 03:44:30;;;;;;;;;;;;;;;19.46;58.18;100416.97;5005433;28;6807;-69
2023/07/20 03:46:56;;;;;;;;;;;;;;;19.53;58.48;100416.19;5011659;28;6803;-69
2023/07/20 03:49:21;;;;;;;;;;;;;;;19.61;57.92;100416.28;4982302;28;6987;-69
2023/07/20 03:51:47;;;;;;;;;;;;;;;19.66;58.41;100418.09;4993350;28;6788;-68
2023/07/20 03:54:12;;;;;;;;;;;;;;;19.73;57.46;100416.41;5010289;28;6844;-71
2023/07/20 03:56:38;;;;;;;;;;;;;;;19.78;57.39;100421.66;4995470;28;7509;-69
2023/07/20 03:59:03;;;;;;;;;;;;;;;19.83;57.74;100423.44;4981019;28;7011;-69
2023/07/20 04:01:29;;;;;;;;;;;;;;;19.89;57.72;100416.56;4994438;28;6815;-68
2023/07/20 04:03:54;;;;;;;;;;;;;;;19.93;57.82;100419.22;4994355;28;6784;-69
2023/07/20 04:06:19;;;;;;;;;;;;;;;19.98;57.37;100424.47;4991655;28;7079;-68
2023/07/20 04:08:47;;;;;;;;;;;;;;;20.01;57.11;100427.13;4978407;28;7080;-70
2023/07/20 04:11:12;;;;;;;;;;;;;;;20.05;57.42;100430.63;4997691;28;6962;-68
2023/07/20 04:13:38;;;;;;;;;;;;;;;20.06;57.45;100425.44;4997245;28;7022;-69
2023/07/20 04:16:04;;;;;;;;;;;;;;;20.08;57.29;100422.84;5002110;28;6784;-69
2023/07/20 04:18:30;;;;;;;;;;;;;;;20.09;57.45;100424.59;5011696;28;6991;-69
2023/07/20 04:20:55;;;;;;;;;;;;;;;20.11;57.79;100421.16;5015116;28;6811;-69
2023/07/20 04:23:20;;;;;;;;;;;;;;;20.15;57.37;100422.06;5012890;28;7132;-68
2023/07/20 04:25:46;;;;;;;;;;;;;;;20.20;57.61;100424.69;5017566;28;7165;-68
2023/07/20 04:28:12;;;;;;;;;;;;;;;20.24;57.62;100423.84;5012057;28;7594;-71
2023/07/20 04:30:40;;;;;;;;;;;;;;;20.29;57.40;100424.78;4996269;28;6962;-71
2023/07/20 04:33:06;;;;;;;;;;;;;;;20.33;56.87;100425.63;5013112;28;7028;-68
2023/07/20 04:35:51;;;;;;;;;;;;;;;20.34;56.95;100425.66;4996648;28;6783;-70
2023/07/20 04:38:17;;;;;;;;;;;;;;;20.36;57.33;100428.28;5011701;28;7012;-68
2023/07/20 04:40:44;;;;;;;;;;;;;;;20.40;57.24;100428.31;4996938;28;6803;-68
2023/07/20 04:43:10;;;;;;;;;;;;;;;20.47;57.54;100436.16;4994469;28;7011;-68
2023/07/20 04:45:35;;;;;;;;;;;;;;;20.56;57.45;100437.97;5011559;28;7006;-71
2023/07/20 04:48:01;;;;;;;;;;;;;;;20.63;57.29;100440.63;5000936;28;6988;-69
2023/07/20 04:50:26;;;;;;;;;;;;;;;20.76;57.43;100440.72;5002910;28;6803;-71
2023/07/20 04:52:52;;;;;;;;;;;;;;;20.87;57.11;100438.22;5001938;28;7071;-69
2023/07/20 04:55:18;;;;;;;;;;;;;;;20.95;57.24;100442.59;4998280;28;6987;-71
2023/07/20 04:57:43;;;;;;;;;;;;;;;21.05;57.19;100442.66;5009745;28;6811;-68
2023/07/20 05:00:11;;;;;;;;;;;;;;;21.19;57.44;100446.22;5014294;28;6861;-69
2023/07/20 05:02:37;;;;;;;;;;;;;;;21.35;57.21;100443.69;4991587;28;11578;-71
2023/07/20 05:05:05;;;;;;;;;;;;;;;21.49;56.50;100436.78;4993867;28;7268;-69
2023/07/20 05:07:31;;;;;;;;;;;;;;;21.59;56.42;100440.28;5001963;28;6983;-70
2023/07/20 05:09:57;;;;;;;;;;;;;;;21.65;55.90;100434.22;4995086;28;6871;-72
2023/07/20 05:12:23;;;;;;;;;;;;;;;21.65;55.43;100436.84;5003364;28;6925;-69
2023/07/20 05:14:48;;;;;;;;;;;;;;;21.65;55.28;100434.22;4994800;28;7296;-69
2023/07/20 05:17:14;;;;;;;;;;;;;;;21.64;55.46;100435.94;5010348;28;7004;-69
2023/07/20 05:19:39;;;;;;;;;;;;;;;21.60;55.30;100426.38;5014539;28;7203;-70
2023/07/20 05:22:05;;;;;;;;;;;;;;;21.54;55.32;100435.94;5013713;28;6795;-68
2023/07/20 05:24:31;;;;;;;;;;;;;;;21.62;56.41;100439.41;4996324;28;7008;-69
2023/07/20 05:26:57;;;;;;;;;;;;;;;21.80;56.94;100435.16;5012662;28;6791;-70
2023/07/20 05:29:23;;;;;;;;;;;;;;;22.10;56.74;100436.06;4994864;28;7035;-70
2023/07/20 05:31:48;;;;;;;;;;;;;;;22.34;56.19;100435.19;4997716;28;7245;-69
2023/07/20 05:34:14;;;;;;;;;;;;;;;22.53;55.62;100445.66;4990389;28;7349;-72
2023/07/20 05:36:39;;;;;;;;;;;;;;;22.63;54.77;100443.94;4992575;28;6880;-69
2023/07/20 05:39:06;;;;;;;;;;;;;;;22.68;54.30;100444.78;5014325;28;7182;-69
2023/07/20 05:41:31;;;;;;;;;;;;;;;22.68;54.18;100442.16;4988517;28;7084;-70
2023/07/20 05:43:57;;;;;;;;;;;;;;;22.59;53.38;100449.13;5013769;28;6787;-71
2023/07/20 05:46:24;;;;;;;;;;;;;;;22.48;53.13;100441.28;5002689;28;6863;-70
2023/07/20 05:48:49;;;;;;;;;;;;;;;22.34;52.97;100443.91;5013741;28;8532;-70
2023/07/20 05:51:15;;;;;;;;;;;;;;;22.22;53.31;100443.03;5011131;28;6796;-69
2023/07/20 05:53:41;;;;;;;;;;;;;;;22.09;53.20;100439.53;4996165;28;6930;-71
2023/07/20 05:56:10;;;;;;;;;;;;;;;22.02;53.83;100446.50;4994849;28;6795;-72
2023/07/20 05:58:35;;;;;;;;;;;;;;;21.96;53.90;100449.97;4998068;28;7022;-69
2023/07/20 06:01:02;;;;;;;;;;;;;;;21.93;53.91;100449.97;4979490;28;6835;-70
2023/07/20 06:03:28;;;;;;;;;;;;;;;21.94;54.37;100453.44;5010768;28;6824;-72
2023/07/20 06:05:59;;;;;;;;;;;;;;;21.97;54.43;100450.81;4983238;28;7178;-69
2023/07/20 06:08:24;;;;;;;;;;;;;;;22.03;54.23;100459.56;4978472;28;7278;-71
2023/07/20 06:10:51;;;;;;;;;;;;;;;22.11;54.38;100459.56;4996176;28;7117;-69
2023/07/20 06:13:17;;;;;;;;;;;;;;;22.30;54.55;100459.56;4995420;28;6876;-71
2023/07/20 06:15:43;;;;;;;;;;;;;;;22.49;54.60;100463.06;4995505;28;6997;-69
2023/07/20 06:18:09;;;;;;;;;;;;;;;22.69;54.59;100465.69;4999392;28;6792;-69
2023/07/20 06:20:34;;;;;;;;;;;;;;;22.89;53.85;100467.41;5003192;28;6803;-69
2023/07/20 06:22:59;;;;;;;;;;;;;;;23.09;53.98;100467.34;5015048;28;6780;-69
2023/07/20 06:25:25;;;;;;;;;;;;;;;23.34;53.79;100467.28;4984987;28;6969;-71
2023/07/20 06:27:51;;;;;;;;;;;;;;;23.50;53.37;100468.09;4998966;28;7015;-70
2023/07/20 06:30:17;;;;;;;;;;;;;;;23.60;52.67;100466.31;4992764;28;6908;-69
2023/07/20 06:32:42;;;;;;;;;;;;;;;23.69;52.31;100475.84;4983280;28;6956;-70
2023/07/20 06:35:08;;;;;;;;;;;;;;;23.73;52.28;100464.50;5002872;28;6942;-69
2023/07/20 06:37:35;;;;;;;;;;;;;;;23.74;51.53;100466.25;5014661;28;6792;-70
2023/07/20 06:40:01;;;;;;;;;;;;;;;23.71;51.65;100471.50;5002514;28;7544;-69
2023/07/20 06:42:26;;;;;;;;;;;;;;;23.64;51.14;100468.03;5017794;28;6833;-68
2023/07/20 06:44:52;;;;;;;;;;;;;;;23.61;51.37;100475.00;4999233;28;6803;-70
2023/07/20 06:47:17;;;;;;;;;;;;;;;23.55;50.90;100463.72;5007406;28;7356;-69
2023/07/20 06:49:43;;;;;;;;;;;;;;;23.53;51.29;100468.09;5014710;28;6784;-70
2023/07/20 06:52:08;;;;;;;;;;;;;;;23.56;51.10;100464.56;4998260;28;7391;-69
2023/07/20 06:54:34;;;;;;;;;;;;;;;23.61;51.05;100460.19;5014349;28;7026;-69
2023/07/20 06:57:00;;;;;;;;;;;;;;;23.68;51.00;100461.91;4996554;28;6967;-69
2023/07/20 06:59:25;;;;;;;;;;;;;;;23.72;51.50;100474.09;5001307;28;6784;-69
2023/07/20 07:01:50;;;;;;;;;;;;;;;23.74;50.69;100467.97;4996291;28;6815;-71
2023/07/20 07:04:16;;;;;;;;;;;;;;;23.76;50.40;100472.31;5001275;28;6872;-70
2023/07/20 07:06:42;;;;;;;;;;;;;;;23.81;51.25;100470.56;5004904;28;6812;-71
2023/07/20 07:09:08;;;;;;;;;;;;;;;23.94;51.74;100473.09;5016219;28;6958;-70
2023/07/20 07:11:34;;;;;;;;;;;;;;;24.20;50.85;100474.72;5013747;28;7256;-70
2023/07/20 07:13:59;;;;;;;;;;;;;;;24.50;50.94;100470.97;5017515;28;6870;-71
2023/07/20 07:16:25;;;;;;;;;;;;;;;24.79;49.80;100469.00;5000660;28;6796;-69
2023/07/20 07:18:51;;;;;;;;;;;;;;;25.09;49.40;100466.94;4982283;28;6947;-71
2023/07/20 07:21:16;;;;;;;;;;;;;;;25.47;49.19;100477.84;4999369;28;6792;-70
2023/07/20 07:23:43;;;;;;;;;;;;;;;25.81;48.58;100477.44;5015975;28;6982;-71
2023/07/20 07:26:09;;;;;;;;;;;;;;;25.95;47.15;100477.22;5001830;28;6796;-71
2023/07/20 07:28:34;;;;;;;;;;;;;;;25.88;46.62;100473.84;5017589;28;6807;-69
2023/07/20 07:31:00;;;;;;;;;;;;;;;25.73;46.68;100476.66;5014574;28;6976;-71
2023/07/20 07:33:26;;;;;;;;;;;;;;;25.77;47.43;100473.09;5010777;28;6779;-71
2023/07/20 07:35:55;;;;;;;;;;;;;;;26.02;47.30;100472.75;4981852;28;7003;-69
2023/07/20 07:38:20;;;;;;;;;;;;;;;26.36;46.75;100474.00;5015449;28;7003;-71
2023/07/20 07:40:46;;;;;;;;;;;;;;;26.61;46.29;100475.34;4999326;28;7186;-71
2023/07/20 07:43:13;;;;;;;;;;;;;;;26.95;45.28;100475.63;5000928;28;7205;-72
2023/07/20 07:45:39;;;;;;;;;;;;;;;27.25;44.69;100486.44;5007106;28;6859;-72
2023/07/20 07:48:05;;;;;;;;;;;;;;;27.47;43.64;100491.25;5013454;28;6953;-69
2023/07/20 07:50:31;;;;;;;;;;;;;;;27.47;43.03;100489.50;4997216;28;7165;-70
2023/07/20 07:52:56;;;;;;;;;;;;;;;27.33;42.87;100494.16;5016971;28;6804;-69
2023/07/20 07:55:22;;;;;;;;;;;;;;;27.11;42.29;100494.59;5002286;28;6857;-71
2023/07/20 07:57:47;;;;;;;;;;;;;;;26.85;42.32;100486.28;5001536;28;6819;-70
2023/07/20 08:00:14;;;;;;;;;;;;;;;26.61;42.51;100491.09;4987633;28;6792;-69
2023/07/20 08:02:43;;;;;;;;;;;;;;;26.60;43.43;100491.97;4982375;28;7058;-69
2023/07/20 08:05:09;;;;;;;;;;;;;;;26.82;43.78;100490.72;5001590;28;6970;-72
2023/07/20 08:07:35;;;;;;;;;;;;;;;27.08;43.23;100489.41;4990180;28;6783;-72
2023/07/20 08:10:01;;;;;;;;;;;;;;;27.24;41.95;100492.59;4990947;28;6784;-71
2023/07/20 08:12:27;;;;;;;;;;;;;;;27.34;41.78;100496.78;5000427;28;6791;-69
2023/07/20 08:14:52;;;;;;;;;;;;;;;27.41;41.56;100486.97;5011214;28;6871;-70
2023/07/20 08:17:18;;;;;;;;;;;;;;;27.46;41.19;100495.66;5013911;28;7043;-69
2023/07/20 08:19:44;;;;;;;;;;;;;;;27.51;41.09;100488.53;5015426;28;7407;-70
2023/07/20 08:22:10;;;;;;;;;;;;;;;27.63;41.19;100492.69;5013176;28;6795;-71
2023/07/20 08:24:39;;;;;;;;;;;;;;;27.86;41.26;100484.28;5007069;28;6894;-72
2023/07/20 08:27:05;;;;;;;;;;;;;;;28.12;41.05;100480.19;5001098;28;6985;-71
2023/07/20 08:29:30;;;;;;;;;;;;;;;28.36;40.70;100480.50;5011784;28;7194;-72
2023/07/20 08:31:56;;;;;;;;;;;;;;;28.66;40.00;100477.97;4993638;28;7226;-69
2023/07/20 08:34:21;;;;;;;;;;;;;;;28.73;39.32;100480.47;4999167;28;6930;-69
2023/07/20 08:36:47;;;;;;;;;;;;;;;28.60;38.86;100482.56;4979750;28;6821;-71
2023/07/20 08:39:12;;;;;;;;;;;;;;;28.48;38.96;100484.59;4992977;28;7215;-71
2023/07/20 08:41:39;;;;;;;;;;;;;;;28.68;39.01;100486.75;4990720;28;7231;-69
2023/07/20 08:44:05;;;;;;;;;;;;;;;29.10;38.36;100487.41;5008516;28;6986;-69
2023/07/20 08:46:31;;;;;;;;;;;;;;;29.56;37.29;100487.03;5006572;28;7075;-69
2023/07/20 08:48:57;;;;;;;;;;;;;;;30.02;37.02;100490.84;5010448;28;6819;-70
2023/07/20 08:51:23;;;;;;;;;;;;;;;30.45;36.26;100485.09;4999873;28;6871;-68
2023/07/20 08:53:51;;;;;;;;;;;;;;;30.87;35.46;100489.00;5013471;28;6950;-69
2023/07/20 08:56:19;;;;;;;;;;;;;;;30.93;35.41;100486.09;4997373;28;6884;-71
2023/07/20 08:58:45;;;;;;;;;;;;;;;30.84;34.37;100478.50;4997758;28;6812;-69
2023/07/20 09:01:12;;;;;;;;;;;;;;;31.00;34.32;100484.09;4991232;28;7003;-71
2023/07/20 09:03:39;;;;;;;;;;;;;;;31.47;34.24;100479.78;4992054;28;6780;-71
2023/07/20 09:06:05;;;;;;;;;;;;;;;32.15;34.05;100482.41;5010019;28;6811;-72
2023/07/20 09:08:31;;;;;;;;;;;;;;;32.90;33.01;100477.50;4986506;28;7226;-71
2023/07/20 09:10:56;;;;;;;;;;;;;;;33.45;32.30;100477.72;4997219;28;6888;-69
2023/07/20 09:13:22;;;;;;;;;;;;;;;33.48;31.16;100473.16;5009583;28;7008;-69
2023/07/20 09:15:53;;;;;;;;;;;;;;;32.95;31.39;100477.31;5006985;28;6862;-71
2023/07/20 09:18:27;;;;;;;;;;;;;;;32.28;31.22;100475.69;4992893;28;7400;-71
2023/07/20 09:20:57;;;;;;;;;;;;;;;31.98;32.02;100477.81;4990626;28;6950;-71
2023/07/20 09:23:39;;;;;;;;;;;;;;;31.85;32.13;100477.44;4983635;28;6946;-71
2023/07/20 09:26:15;;;;;;;;;;;;;;;31.80;32.17;100482.91;4988653;28;6958;-71
2023/07/20 09:28:49;;;;;;;;;;;;;;;32.11;32.59;100479.03;4997877;28;6907;-71
2023/07/20 09:31:17;;;;;;;;;;;;;;;32.71;31.96;100474.78;4994017;28;7504;-70
2023/07/20 09:33:42;;;;;;;;;;;;;;;33.38;30.90;100471.84;5009833;28;6986;-71
2023/07/20 09:36:11;;;;;;;;;;;;;;;33.80;30.64;100467.22;5007429;28;6783;-72
2023/07/20 09:38:37;;;;;;;;;;;;;;;34.02;29.42;100467.06;4982240;28;6828;-70
2023/07/20 09:41:05;;;;;;;;;;;;;;;34.10;29.74;100466.69;4992746;28;7136;-71
2023/07/20 09:43:32;;;;;;;;;;;;;;;34.11;29.51;100465.75;4983084;28;7180;-69
2023/07/20 09:45:58;;;;;;;;;;;;;;;33.98;29.79;100464.59;4997575;28;6821;-71
2023/07/20 09:48:26;;;;;;;;;;;;;;;33.85;29.37;100466.97;5003561;28;7015;-69
2023/07/20 09:50:52;;;;;;;;;;;;;;;33.66;29.25;100467.91;4997006;28;6893;-69
2023/07/20 09:53:19;;;;;;;;;;;;;;;33.52;28.88;100469.41;4998564;28;6804;-68
2023/07/20 09:55:47;;;;;;;;;;;;;;;33.74;29.16;100472.84;4998305;28;6861;-72
2023/07/20 09:58:12;;;;;;;;;;;;;;;34.14;28.48;100465.59;4999807;28;7235;-70
2023/07/20 10:00:39;;;;;;;;;;;;;;;34.43;28.60;100455.25;5012390;28;7204;-70
2023/07/20 10:03:06;;;;;;;;;;;;;;;34.67;28.40;100460.28;4997498;28;6995;-71
2023/07/20 10:05:39;;;;;;;;;;;;;;;34.96;27.31;100465.84;4993280;28;6859;-70
2023/07/20 10:08:11;;;;;;;;;;;;;;;35.13;26.94;100458.78;4998065;28;6792;-71
2023/07/20 10:10:38;;;;;;;;;;;;;;;35.29;27.38;100453.44;4972948;28;7429;-72
2023/07/20 10:13:06;;;;;;;;;;;;;;;35.43;27.10;100463.34;4996148;28;7622;-71
2023/07/20 10:15:45;;;;;;;;;;;;;;;35.33;26.19;100463.00;4997548;28;6952;-71
2023/07/20 10:18:23;;;;;;;;;;;;;;;35.33;25.95;100462.13;5000375;28;6807;-70
2023/07/20 10:20:51;;;;;;;;;;;;;;;35.47;26.08;100450.72;5000775;28;6878;-70
2023/07/20 10:23:17;;;;;;;;;;;;;;;35.56;26.07;100450.22;4996146;28;7129;-70
2023/07/20 10:25:44;;;;;;;;;;;;;;;35.25;26.47;100458.13;4998652;28;7103;-69
2023/07/20 10:28:10;;;;;;;;;;;;;;;34.80;26.30;100456.97;5013525;28;6986;-69
2023/07/20 10:30:37;;;;;;;;;;;;;;;34.04;26.93;100451.91;4997009;28;6934;-70
2023/07/20 10:33:04;;;;;;;;;;;;;;;33.38;27.52;100456.75;4990443;28;7089;-70
2023/07/20 10:35:30;;;;;;;;;;;;;;;33.22;27.42;100451.31;5000384;28;6938;-70
2023/07/20 10:38:04;;;;;;;;;;;;;;;33.32;26.75;100451.75;4999659;28;7210;-70
2023/07/20 10:40:33;;;;;;;;;;;;;;;33.34;26.94;100444.56;4978519;28;6989;-70
2023/07/20 10:43:04;;;;;;;;;;;;;;;33.75;27.08;100437.38;5001104;28;6819;-69
2023/07/20 10:45:57;;;;;;;;;;;;;;;34.55;26.65;100431.66;5012723;28;7016;-68
2023/07/20 10:48:24;;;;;;;;;;;;;;;34.95;25.53;100426.84;4998169;28;6832;-70
2023/07/20 10:51:08;;;;;;;;;;;;;;;34.53;26.00;100422.88;5002306;28;6815;-69
2023/07/20 10:53:34;;;;;;;;;;;;;;;33.89;26.24;100426.06;5000564;28;7244;-70
2023/07/20 10:56:14;;;;;;;;;;;;;;;33.32;26.84;100419.88;5013859;28;6803;-68
2023/07/20 10:58:41;;;;;;;;;;;;;;;33.35;27.37;100421.50;5016301;28;6820;-69
2023/07/20 11:01:08;;;;;;;;;;;;;;;33.82;27.21;100428.16;5009950;28;6808;-72
2023/07/20 11:03:36;;;;;;;;;;;;;;;33.93;26.46;100416.97;5017703;28;6977;-69
2023/07/20 11:06:24;;;;;;;;;;;;;;;33.48;26.75;100429.78;5012985;28;7779;-70
2023/07/20 11:09:10;;;;;;;;;;;;;;;32.88;27.07;100430.72;4996550;28;6996;-70
2023/07/20 11:11:38;;;;;;;;;;;;;;;32.20;27.04;100435.38;4997036;28;7085;-70
2023/07/20 11:14:08;;;;;;;;;;;;;;;31.65;27.48;100428.72;4999080;28;6800;-71
2023/07/20 11:16:40;;;;;;;;;;;;;;;31.22;27.96;100440.97;4983970;28;6976;-72
2023/07/20 11:19:17;;;;;;;;;;;;;;;30.80;28.94;100437.22;4994897;28;6843;-71
2023/07/20 11:21:45;;;;;;;;;;;;;;;30.51;28.71;100434.66;5002685;28;6820;-71
2023/07/20 11:24:11;;;;;;;;;;;;;;;30.46;29.19;100433.97;5000174;28;7257;-71
2023/07/20 11:26:49;;;;;;;;;;;;;;;30.60;30.00;100429.03;5013041;28;6812;-69
2023/07/20 11:29:16;;;;;;;;;;;;;;;30.62;29.42;100424.56;5012634;28;7244;-69
2023/07/20 11:31:43;;;;;;;;;;;;;;;30.58;29.57;100425.59;4996236;28;6876;-70
2023/07/20 11:34:15;;;;;;;;;;;;;;;30.42;30.02;100430.56;5011418;28;6815;-68
2023/07/20 11:36:42;;;;;;;;;;;;;;;30.23;30.29;100424.19;5003296;28;6816;-69
2023/07/20 11:39:12;;;;;;;;;;;;;;;30.03;30.29;100437.09;5009735;28;6796;-70
2023/07/20 11:41:39;;;;;;;;;;;;;;;29.80;30.62;100424.66;5013672;28;6815;-70
2023/07/20 11:44:12;;;;;;;;;;;;;;;29.59;30.76;100420.91;5011498;28;6963;-69
2023/07/20 11:46:39;;;;;;;;;;;;;;;29.43;31.45;100431.91;4998024;28;6820;-71
2023/07/20 11:49:05;;;;;;;;;;;;;;;29.40;31.19;100429.38;4984341;28;7007;-69
2023/07/20 11:51:32;;;;;;;;;;;;;;;29.41;31.20;100424.94;4999489;28;6999;-69
2023/07/20 11:53:58;;;;;;;;;;;;;;;29.44;31.24;100428.38;4990880;28;7157;-71
2023/07/20 11:56:25;;;;;;;;;;;;;;;29.48;30.99;100427.38;5006626;28;7107;-69
2023/07/20 11:58:55;;;;;;;;;;;;;;;29.57;31.78;100417.47;4991980;28;6828;-70
2023/07/20 12:01:23;;;;;;;;;;;;;;;29.60;31.83;100410.31;4995345;28;7229;-73
2023/07/20 12:03:49;;;;;;;;;;;;;;;29.65;31.69;100413.66;4989299;28;8121;-70
2023/07/20 12:06:15;;;;;;;;;;;;;;;29.69;31.43;100411.78;4995143;28;7235;-69
2023/07/20 12:08:44;;;;;;;;;;;;;;;29.69;31.89;100413.53;4982545;28;6958;-71
2023/07/20 12:11:10;;;;;;;;;;;;;;;29.58;31.09;100417.41;4992327;28;8166;-69
2023/07/20 12:13:43;;;;;;;;;;;;;;;29.43;31.23;100407.28;4996978;28;7182;-69
2023/07/20 12:16:17;;;;;;;;;;;;;;;29.27;31.85;100414.81;4997882;28;7066;-69
2023/07/20 12:18:43;;;;;;;;;;;;;;;29.12;31.21;100414.34;4981501;28;8628;-69
2023/07/20 12:21:10;;;;;;;;;;;;;;;29.01;32.00;100405.88;5007106;28;7136;-68
2023/07/20 12:23:37;;;;;;;;;;;;;;;28.90;31.98;100409.72;5008723;28;6995;-70
2023/07/20 12:26:03;;;;;;;;;;;;;;;28.83;32.23;100405.50;4992738;28;6991;-68
2023/07/20 12:28:29;;;;;;;;;;;;;;;28.79;31.99;100412.59;4995704;28;6776;-69
2023/07/20 12:30:58;;;;;;;;;;;;;;;28.80;32.36;100408.22;4994570;28;7005;-70
2023/07/20 12:33:23;;;;;;;;;;;;;;;28.84;32.92;100396.69;4990494;28;6804;-67
2023/07/20 12:35:49;;;;;;;;;;;;;;;29.10;32.63;100395.06;4994834;28;7192;-70
2023/07/20 12:38:15;;;;;;;;;;;;;;;29.80;32.61;100391.16;4995765;28;6898;-73
2023/07/20 12:40:41;;;;;;;;;;;;;;;30.73;31.05;100392.47;4994131;28;6860;-67
2023/07/20 12:43:07;;;;;;;;;;;;;;;31.59;30.16;100382.16;5011127;28;6795;-67
2023/07/20 12:45:33;;;;;;;;;;;;;;;32.34;29.36;100384.41;4983205;28;7222;-67
2023/07/20 12:47:59;;;;;;;;;;;;;;;33.08;29.13;100380.25;5009234;28;7435;-69